sensor_id;sensor_type;location;lat;lon;timestamp;pressure;altitude;pressure_sealevel;temperature;humidity
69528;BME280;57136;51.986;4.468;2022-12-01T00:00:12;102925.53;;;3.29;100.00
69528;BME280;57136;51.986;4.468;2022-12-01T00:02:38;102928.03;;;3.28;100.00
69528;BME280;57136;51.986;4.468;2022-12-01T00:05:04;102928.91;;;3.28;100.00
69528;BME280;57136;51.986;4.468;2022-12-01T00:07:29;102926.13;;;3.25;100.00
69528;BME280;57136;51.986;4.468;2022-12-01T00:09:55;102925.91;;;3.22;100.00
69528;BME280;57136;51.986;4.468;2022-12-01T00:12:39;102930.09;;;3.20;100.00
69528;BME280;57136;51.986;4.468;2022-12-01T00:15:08;102924.72;;;3.17;100.00
69528;BME280;57136;51.986;4.468;2022-12-01T00:17:35;102933.91;;;3.13;100.00
69528;BME280;57136;51.986;4.468;2022-12-01T00:20:00;102927.53;;;3.08;100.00
69528;BME280;57136;51.986;4.468;2022-12-01T00:22:26;102927.22;;;3.04;100.00
69528;BME280;57136;51.986;4.468;2022-12-01T00:24:51;102927.34;;;3.05;100.00
69528;BME280;57136;51.986;4.468;2022-12-01T00:27:17;102928.22;;;3.06;100.00
69528;BME280;57136;51.986;4.468;2022-12-01T00:29:44;102921.41;;;3.06;100.00
69528;BME280;57136;51.986;4.468;2022-12-01T00:32:09;102928.31;;;3.07;100.00
69528;BME280;57136;51.986;4.468;2022-12-01T00:34:35;102929.44;;;3.11;100.00
69528;BME280;57136;51.986;4.468;2022-12-01T00:37:02;102927.88;;;3.13;100.00
69528;BME280;57136;51.986;4.468;2022-12-01T00:39:27;102926.28;;;3.15;100.00
69528;BME280;57136;51.986;4.468;2022-12-01T00:41:52;102927.97;;;3.14;100.00
69528;BME280;57136;51.986;4.468;2022-12-01T00:44:18;102934.59;;;3.11;100.00
69528;BME280;57136;51.986;4.468;2022-12-01T00:46:43;102930.09;;;3.08;100.00
69528;BME280;57136;51.986;4.468;2022-12-01T00:49:11;102929.22;;;3.08;100.00
69528;BME280;57136;51.986;4.468;2022-12-01T00:51:36;102925.75;;;3.07;100.00
69528;BME280;57136;51.986;4.468;2022-12-01T00:54:02;102937.66;;;3.05;100.00
69528;BME280;57136;51.986;4.468;2022-12-01T00:56:27;102930.03;;;3.07;100.00
69528;BME280;57136;51.986;4.468;2022-12-01T00:58:53;102937.03;;;3.09;100.00
69528;BME280;57136;51.986;4.468;2022-12-01T01:01:18;102935.59;;;3.13;100.00
69528;BME280;57136;51.986;4.468;2022-12-01T01:03:43;102934.03;;;3.15;100.00
69528;BME280;57136;51.986;4.468;2022-12-01T01:06:10;102940.97;;;3.16;100.00
69528;BME280;57136;51.986;4.468;2022-12-01T01:08:36;102943.75;;;3.19;100.00
69528;BME280;57136;51.986;4.468;2022-12-01T01:11:02;102940.22;;;3.30;100.00
69528;BME280;57136;51.986;4.468;2022-12-01T01:13:28;102938.06;;;3.37;100.00
69528;BME280;57136;51.986;4.468;2022-12-01T01:16:02;102941.28;;;3.46;100.00
69528;BME280;57136;51.986;4.468;2022-12-01T01:18:28;102943.88;;;3.59;100.00
69528;BME280;57136;51.986;4.468;2022-12-01T01:20:58;102946.88;;;3.66;100.00
69528;BME280;57136;51.986;4.468;2022-12-01T01:23:24;102946.59;;;3.74;100.00
69528;BME280;57136;51.986;4.468;2022-12-01T01:25:49;102951.94;;;3.78;100.00
69528;BME280;57136;51.986;4.468;2022-12-01T01:28:15;102954.25;;;3.86;100.00
69528;BME280;57136;51.986;4.468;2022-12-01T01:30:40;102949.69;;;3.96;100.00
69528;BME280;57136;51.986;4.468;2022-12-01T01:33:06;102954.56;;;4.04;100.00
69528;BME280;57136;51.986;4.468;2022-12-01T01:35:31;102958.13;;;4.07;100.00
69528;BME280;57136;51.986;4.468;2022-12-01T01:37:57;102960.91;;;4.10;100.00
69528;BME280;57136;51.986;4.468;2022-12-01T01:40:22;102960.13;;;4.11;100.00
69528;BME280;57136;51.986;4.468;2022-12-01T01:42:47;102960.81;;;4.22;100.00
69528;BME280;57136;51.986;4.468;2022-12-01T01:45:23;102957.66;;;4.26;100.00
69528;BME280;57136;51.986;4.468;2022-12-01T01:47:51;102960.44;;;4.29;100.00
69528;BME280;57136;51.986;4.468;2022-12-01T01:50:19;102958.53;;;4.26;100.00
69528;BME280;57136;51.986;4.468;2022-12-01T01:53:09;102960.81;;;4.35;100.00
69528;BME280;57136;51.986;4.468;2022-12-01T01:55:35;102965.97;;;4.35;100.00
69528;BME280;57136;51.986;4.468;2022-12-01T01:58:03;102964.38;;;4.37;100.00
69528;BME280;57136;51.986;4.468;2022-12-01T02:00:31;102975.31;;;4.33;100.00
69528;BME280;57136;51.986;4.468;2022-12-01T02:02:56;102962.41;;;4.46;100.00
69528;BME280;57136;51.986;4.468;2022-12-01T02:05:24;102971.84;;;4.46;100.00
69528;BME280;57136;51.986;4.468;2022-12-01T02:07:52;102963.41;;;4.48;100.00
69528;BME280;57136;51.986;4.468;2022-12-01T02:10:20;102958.44;;;4.52;100.00
69528;BME280;57136;51.986;4.468;2022-12-01T02:13:26;102952.88;;;4.59;100.00
69528;BME280;57136;51.986;4.468;2022-12-01T02:19:29;102956.72;;;4.65;100.00
69528;BME280;57136;51.986;4.468;2022-12-01T02:27:58;102948.09;;;4.52;100.00
69528;BME280;57136;51.986;4.468;2022-12-01T02:30:38;102937.28;;;4.44;100.00
69528;BME280;57136;51.986;4.468;2022-12-01T02:36:08;102939.97;;;4.18;100.00
69528;BME280;57136;51.986;4.468;2022-12-01T02:38:42;102942.66;;;4.07;100.00
69528;BME280;57136;51.986;4.468;2022-12-01T02:41:23;102949.78;;;3.97;100.00
69528;BME280;57136;51.986;4.468;2022-12-01T02:44:13;102941.94;;;3.82;100.00
69528;BME280;57136;51.986;4.468;2022-12-01T02:49:14;102942.78;;;3.69;100.00
69528;BME280;57136;51.986;4.468;2022-12-01T02:51:42;102949.22;;;3.63;100.00
69528;BME280;57136;51.986;4.468;2022-12-01T02:54:09;102945.56;;;3.59;100.00
69528;BME280;57136;51.986;4.468;2022-12-01T02:56:36;102940.09;;;3.54;100.00
69528;BME280;57136;51.986;4.468;2022-12-01T02:59:13;102943.44;;;3.53;100.00
69528;BME280;57136;51.986;4.468;2022-12-01T03:21:01;102950.19;;;4.03;100.00
69528;BME280;57136;51.986;4.468;2022-12-01T03:23:32;102944.81;;;4.00;100.00
69528;BME280;57136;51.986;4.468;2022-12-01T03:26:02;102945.31;;;3.95;100.00
69528;BME280;57136;51.986;4.468;2022-12-01T03:28:35;102946.28;;;3.83;100.00
69528;BME280;57136;51.986;4.468;2022-12-01T03:31:05;102941.22;;;3.71;100.00
69528;BME280;57136;51.986;4.468;2022-12-01T03:34:02;102943.28;;;3.64;100.00
69528;BME280;57136;51.986;4.468;2022-12-01T03:36:35;102941.00;;;3.55;100.00
69528;BME280;57136;51.986;4.468;2022-12-01T03:39:10;102935.41;;;3.49;100.00
69528;BME280;57136;51.986;4.468;2022-12-01T03:41:41;102942.84;;;3.44;100.00
69528;BME280;57136;51.986;4.468;2022-12-01T03:44:20;102941.50;;;3.37;100.00
69528;BME280;57136;51.986;4.468;2022-12-01T03:46:50;102934.06;;;3.28;100.00
69528;BME280;57136;51.986;4.468;2022-12-01T03:49:18;102934.41;;;3.21;100.00
69528;BME280;57136;51.986;4.468;2022-12-01T03:52:05;102932.22;;;3.14;100.00
69528;BME280;57136;51.986;4.468;2022-12-01T03:54:59;102931.91;;;3.09;100.00
69528;BME280;57136;51.986;4.468;2022-12-01T03:57:39;102939.09;;;3.02;100.00
69528;BME280;57136;51.986;4.468;2022-12-01T04:00:06;102936.75;;;3.05;100.00
69528;BME280;57136;51.986;4.468;2022-12-01T04:02:32;102940.78;;;3.01;100.00
69528;BME280;57136;51.986;4.468;2022-12-01T04:04:57;102946.94;;;3.03;100.00
69528;BME280;57136;51.986;4.468;2022-12-01T04:07:23;102947.63;;;3.00;100.00
69528;BME280;57136;51.986;4.468;2022-12-01T04:09:48;102952.19;;;3.05;100.00
69528;BME280;57136;51.986;4.468;2022-12-01T04:12:13;102955.22;;;3.11;100.00
69528;BME280;57136;51.986;4.468;2022-12-01T04:14:59;102948.94;;;3.07;100.00
69528;BME280;57136;51.986;4.468;2022-12-01T04:17:25;102942.47;;;3.00;100.00
69528;BME280;57136;51.986;4.468;2022-12-01T04:19:51;102941.94;;;2.93;100.00
69528;BME280;57136;51.986;4.468;2022-12-01T04:22:17;102941.41;;;2.85;100.00
69528;BME280;57136;51.986;4.468;2022-12-01T04:24:43;102945.44;;;2.81;100.00
69528;BME280;57136;51.986;4.468;2022-12-01T04:27:08;102947.00;;;2.79;100.00
69528;BME280;57136;51.986;4.468;2022-12-01T04:29:33;102946.03;;;2.77;100.00
69528;BME280;57136;51.986;4.468;2022-12-01T04:31:59;102947.47;;;2.74;100.00
69528;BME280;57136;51.986;4.468;2022-12-01T04:34:24;102953.97;;;2.68;100.00
69528;BME280;57136;51.986;4.468;2022-12-01T04:36:49;102952.56;;;2.60;100.00
69528;BME280;57136;51.986;4.468;2022-12-01T04:39:15;102955.69;;;2.56;100.00
69528;BME280;57136;51.986;4.468;2022-12-01T04:41:40;102965.06;;;2.55;100.00
69528;BME280;57136;51.986;4.468;2022-12-01T04:44:06;102960.06;;;2.57;100.00
69528;BME280;57136;51.986;4.468;2022-12-01T04:46:31;102963.06;;;2.63;100.00
69528;BME280;57136;51.986;4.468;2022-12-01T04:48:57;102962.47;;;2.67;100.00
69528;BME280;57136;51.986;4.468;2022-12-01T04:51:22;102957.53;;;2.70;100.00
69528;BME280;57136;51.986;4.468;2022-12-01T04:53:51;102955.97;;;2.73;100.00
69528;BME280;57136;51.986;4.468;2022-12-01T04:56:16;102949.25;;;2.75;100.00
69528;BME280;57136;51.986;4.468;2022-12-01T04:58:42;102953.53;;;2.74;100.00
69528;BME280;57136;51.986;4.468;2022-12-01T05:01:10;102952.06;;;2.78;100.00
69528;BME280;57136;51.986;4.468;2022-12-01T05:03:41;102949.69;;;2.81;100.00
69528;BME280;57136;51.986;4.468;2022-12-01T05:06:10;102942.72;;;2.92;100.00
69528;BME280;57136;51.986;4.468;2022-12-01T05:08:36;102945.50;;;2.95;100.00
69528;BME280;57136;51.986;4.468;2022-12-01T05:11:02;102956.00;;;3.10;100.00
69528;BME280;57136;51.986;4.468;2022-12-01T05:13:28;102952.06;;;3.15;100.00
69528;BME280;57136;51.986;4.468;2022-12-01T05:16:03;102950.69;;;3.20;100.00
69528;BME280;57136;51.986;4.468;2022-12-01T05:18:28;102952.66;;;3.24;100.00
69528;BME280;57136;51.986;4.468;2022-12-01T05:20:53;102952.31;;;3.32;100.00
69528;BME280;57136;51.986;4.468;2022-12-01T05:23:32;102962.47;;;3.42;100.00
69528;BME280;57136;51.986;4.468;2022-12-01T05:25:58;102954.88;;;3.57;100.00
69528;BME280;57136;51.986;4.468;2022-12-01T05:28:24;102959.84;;;3.54;100.00
69528;BME280;57136;51.986;4.468;2022-12-01T05:30:51;102950.22;;;3.65;100.00
69528;BME280;57136;51.986;4.468;2022-12-01T05:33:16;102949.22;;;3.63;100.00
69528;BME280;57136;51.986;4.468;2022-12-01T05:35:42;102948.75;;;3.68;100.00
69528;BME280;57136;51.986;4.468;2022-12-01T05:38:07;102955.47;;;3.66;100.00
69528;BME280;57136;51.986;4.468;2022-12-01T05:40:33;102955.38;;;3.65;100.00
69528;BME280;57136;51.986;4.468;2022-12-01T05:42:58;102952.31;;;3.57;100.00
69528;BME280;57136;51.986;4.468;2022-12-01T05:45:24;102948.66;;;3.67;100.00
69528;BME280;57136;51.986;4.468;2022-12-01T05:47:54;102955.03;;;3.47;100.00
69528;BME280;57136;51.986;4.468;2022-12-01T05:50:20;102955.09;;;3.35;100.00
69528;BME280;57136;51.986;4.468;2022-12-01T05:52:45;102963.09;;;3.26;100.00
69528;BME280;57136;51.986;4.468;2022-12-01T05:55:10;102952.47;;;3.21;100.00
69528;BME280;57136;51.986;4.468;2022-12-01T05:57:36;102951.50;;;3.19;100.00
69528;BME280;57136;51.986;4.468;2022-12-01T06:00:03;102962.94;;;3.11;100.00
69528;BME280;57136;51.986;4.468;2022-12-01T06:02:30;102964.38;;;3.07;100.00
69528;BME280;57136;51.986;4.468;2022-12-01T06:04:55;102966.66;;;3.03;100.00
69528;BME280;57136;51.986;4.468;2022-12-01T06:07:21;102970.22;;;3.05;100.00
69528;BME280;57136;51.986;4.468;2022-12-01T06:09:49;102971.66;;;3.13;100.00
69528;BME280;57136;51.986;4.468;2022-12-01T06:12:15;102972.09;;;3.19;100.00
69528;BME280;57136;51.986;4.468;2022-12-01T06:14:40;102967.25;;;3.24;100.00
69528;BME280;57136;51.986;4.468;2022-12-01T06:17:05;102984.94;;;3.31;100.00
69528;BME280;57136;51.986;4.468;2022-12-01T06:19:31;102979.50;;;3.40;100.00
69528;BME280;57136;51.986;4.468;2022-12-01T06:21:56;102981.97;;;3.38;100.00
69528;BME280;57136;51.986;4.468;2022-12-01T06:24:22;102979.59;;;3.41;100.00
69528;BME280;57136;51.986;4.468;2022-12-01T06:26:47;102976.25;;;3.42;100.00
69528;BME280;57136;51.986;4.468;2022-12-01T06:29:12;102966.41;;;3.37;100.00
69528;BME280;57136;51.986;4.468;2022-12-01T06:31:38;102979.28;;;3.37;100.00
69528;BME280;57136;51.986;4.468;2022-12-01T06:34:03;102982.75;;;3.37;100.00
69528;BME280;57136;51.986;4.468;2022-12-01T06:36:28;102995.84;;;3.40;100.00
69528;BME280;57136;51.986;4.468;2022-12-01T06:38:54;102986.66;;;3.44;100.00
69528;BME280;57136;51.986;4.468;2022-12-01T06:41:19;102990.44;;;3.49;100.00
69528;BME280;57136;51.986;4.468;2022-12-01T06:43:44;102996.81;;;3.54;100.00
69528;BME280;57136;51.986;4.468;2022-12-01T06:46:10;102988.63;;;3.60;100.00
69528;BME280;57136;51.986;4.468;2022-12-01T06:48:35;102993.28;;;3.66;100.00
69528;BME280;57136;51.986;4.468;2022-12-01T06:51:01;102990.59;;;3.64;100.00
69528;BME280;57136;51.986;4.468;2022-12-01T06:53:27;102998.31;;;3.64;100.00
69528;BME280;57136;51.986;4.468;2022-12-01T06:55:57;102997.00;;;3.57;100.00
69528;BME280;57136;51.986;4.468;2022-12-01T06:58:23;102995.22;;;3.56;100.00
69528;BME280;57136;51.986;4.468;2022-12-01T07:00:48;103001.88;;;3.53;100.00
69528;BME280;57136;51.986;4.468;2022-12-01T07:03:14;102996.59;;;3.51;100.00
69528;BME280;57136;51.986;4.468;2022-12-01T07:05:39;102999.16;;;3.51;100.00
69528;BME280;57136;51.986;4.468;2022-12-01T07:08:04;102997.19;;;3.47;100.00
69528;BME280;57136;51.986;4.468;2022-12-01T07:10:31;102999.56;;;3.44;100.00
69528;BME280;57136;51.986;4.468;2022-12-01T07:12:56;102991.03;;;3.45;100.00
69528;BME280;57136;51.986;4.468;2022-12-01T07:15:22;102999.78;;;3.47;100.00
69528;BME280;57136;51.986;4.468;2022-12-01T07:17:48;103000.88;;;3.51;100.00
69528;BME280;57136;51.986;4.468;2022-12-01T07:20:14;103001.75;;;3.51;100.00
69528;BME280;57136;51.986;4.468;2022-12-01T07:22:39;103004.59;;;3.68;100.00
69528;BME280;57136;51.986;4.468;2022-12-01T07:25:07;103006.97;;;3.65;100.00
69528;BME280;57136;51.986;4.468;2022-12-01T07:27:33;103011.22;;;3.64;100.00
69528;BME280;57136;51.986;4.468;2022-12-01T07:29:58;103013.59;;;3.61;100.00
69528;BME280;57136;51.986;4.468;2022-12-01T07:32:23;103012.81;;;3.62;100.00
69528;BME280;57136;51.986;4.468;2022-12-01T07:34:49;103015.28;;;3.60;100.00
69528;BME280;57136;51.986;4.468;2022-12-01T07:37:14;103016.97;;;3.60;100.00
69528;BME280;57136;51.986;4.468;2022-12-01T07:39:39;103016.97;;;3.60;100.00
69528;BME280;57136;51.986;4.468;2022-12-01T07:42:04;103016.19;;;3.61;100.00
69528;BME280;57136;51.986;4.468;2022-12-01T07:44:30;103025.81;;;3.64;100.00
69528;BME280;57136;51.986;4.468;2022-12-01T07:46:56;103039.34;;;3.73;100.00
69528;BME280;57136;51.986;4.468;2022-12-01T07:49:21;103039.28;;;3.85;100.00
69528;BME280;57136;51.986;4.468;2022-12-01T07:51:46;103043.56;;;3.98;100.00
69528;BME280;57136;51.986;4.468;2022-12-01T07:54:12;103033.97;;;4.09;100.00
69528;BME280;57136;51.986;4.468;2022-12-01T07:56:39;103038.63;;;4.14;100.00
69528;BME280;57136;51.986;4.468;2022-12-01T07:59:05;103040.13;;;4.24;100.00
69528;BME280;57136;51.986;4.468;2022-12-01T08:01:33;103043.25;;;4.32;100.00
69528;BME280;57136;51.986;4.468;2022-12-01T08:03:58;103049.09;;;4.43;100.00
69528;BME280;57136;51.986;4.468;2022-12-01T08:06:25;103043.44;;;4.48;100.00
69528;BME280;57136;51.986;4.468;2022-12-01T08:08:51;103042.94;;;4.54;100.00
69528;BME280;57136;51.986;4.468;2022-12-01T08:11:19;103045.13;;;4.61;100.00
69528;BME280;57136;51.986;4.468;2022-12-01T08:13:45;103054.75;;;4.64;100.00
69528;BME280;57136;51.986;4.468;2022-12-01T08:16:13;103049.78;;;4.67;100.00
69528;BME280;57136;51.986;4.468;2022-12-01T08:18:40;103052.69;;;4.72;100.00
69528;BME280;57136;51.986;4.468;2022-12-01T08:21:08;103054.84;;;4.79;100.00
69528;BME280;57136;51.986;4.468;2022-12-01T08:23:35;103059.88;;;4.91;100.00
69528;BME280;57136;51.986;4.468;2022-12-01T08:26:02;103054.13;;;4.95;100.00
69528;BME280;57136;51.986;4.468;2022-12-01T08:28:28;103051.75;;;4.98;100.00
69528;BME280;57136;51.986;4.468;2022-12-01T08:30:53;103052.66;;;4.99;100.00
69528;BME280;57136;51.986;4.468;2022-12-01T08:33:19;103052.22;;;5.06;100.00
69528;BME280;57136;51.986;4.468;2022-12-01T08:35:45;103051.16;;;5.02;100.00
69528;BME280;57136;51.986;4.468;2022-12-01T08:38:10;103057.78;;;5.12;100.00
69528;BME280;57136;51.986;4.468;2022-12-01T08:40:36;103059.25;;;5.22;100.00
69528;BME280;57136;51.986;4.468;2022-12-01T08:43:02;103063.72;;;5.24;100.00
69528;BME280;57136;51.986;4.468;2022-12-01T08:45:28;103071.16;;;5.33;100.00
69528;BME280;57136;51.986;4.468;2022-12-01T08:47:53;103067.38;;;5.42;100.00
69528;BME280;57136;51.986;4.468;2022-12-01T08:50:24;103054.97;;;5.51;100.00
69528;BME280;57136;51.986;4.468;2022-12-01T08:52:50;103051.22;;;5.46;100.00
69528;BME280;57136;51.986;4.468;2022-12-01T08:55:15;103052.38;;;5.51;100.00
69528;BME280;57136;51.986;4.468;2022-12-01T08:57:41;103057.06;;;5.57;100.00
69528;BME280;57136;51.986;4.468;2022-12-01T09:00:06;103055.56;;;5.60;100.00
69528;BME280;57136;51.986;4.468;2022-12-01T09:02:32;103057.34;;;5.61;100.00
69528;BME280;57136;51.986;4.468;2022-12-01T09:04:57;103058.59;;;5.68;100.00
69528;BME280;57136;51.986;4.468;2022-12-01T09:07:22;103057.63;;;5.81;100.00
69528;BME280;57136;51.986;4.468;2022-12-01T09:09:48;103052.03;;;5.88;100.00
69528;BME280;57136;51.986;4.468;2022-12-01T09:12:14;103050.75;;;6.10;100.00
69528;BME280;57136;51.986;4.468;2022-12-01T09:14:41;103054.69;;;6.03;100.00
69528;BME280;57136;51.986;4.468;2022-12-01T09:17:07;103051.47;;;6.22;100.00
69528;BME280;57136;51.986;4.468;2022-12-01T09:19:33;103053.25;;;6.53;100.00
69528;BME280;57136;51.986;4.468;2022-12-01T09:22:00;103057.09;;;6.77;100.00
69528;BME280;57136;51.986;4.468;2022-12-01T09:24:26;103053.84;;;6.64;100.00
69528;BME280;57136;51.986;4.468;2022-12-01T09:26:56;103059.66;;;6.92;100.00
69528;BME280;57136;51.986;4.468;2022-12-01T09:29:21;103056.78;;;7.18;100.00
69528;BME280;57136;51.986;4.468;2022-12-01T09:31:47;103056.16;;;7.23;100.00
69528;BME280;57136;51.986;4.468;2022-12-01T09:34:16;103057.38;;;7.13;100.00
69528;BME280;57136;51.986;4.468;2022-12-01T09:36:42;103057.78;;;7.20;100.00
69528;BME280;57136;51.986;4.468;2022-12-01T09:39:11;103052.78;;;7.57;100.00
69528;BME280;57136;51.986;4.468;2022-12-01T09:41:40;103058.03;;;7.58;100.00
69528;BME280;57136;51.986;4.468;2022-12-01T09:49:22;103059.63;;;8.24;100.00
69528;BME280;57136;51.986;4.468;2022-12-01T09:51:49;103059.53;;;8.04;100.00
69528;BME280;57136;51.986;4.468;2022-12-01T09:54:16;103056.16;;;8.23;100.00
69528;BME280;57136;51.986;4.468;2022-12-01T09:56:45;103049.47;;;8.29;100.00
69528;BME280;57136;51.986;4.468;2022-12-01T09:59:19;103047.81;;;7.78;100.00
69528;BME280;57136;51.986;4.468;2022-12-01T10:01:52;103042.16;;;7.52;100.00
69528;BME280;57136;51.986;4.468;2022-12-01T10:04:35;103036.13;;;7.70;100.00
69528;BME280;57136;51.986;4.468;2022-12-01T10:07:09;103036.72;;;7.47;100.00
69528;BME280;57136;51.986;4.468;2022-12-01T10:09:46;103037.44;;;7.61;100.00
69528;BME280;57136;51.986;4.468;2022-12-01T10:12:17;103034.41;;;7.70;100.00
69528;BME280;57136;51.986;4.468;2022-12-01T10:14:47;103036.22;;;7.22;100.00
69528;BME280;57136;51.986;4.468;2022-12-01T10:17:30;103029.81;;;7.31;100.00
69528;BME280;57136;51.986;4.468;2022-12-01T10:20:24;103032.88;;;7.57;100.00
69528;BME280;57136;51.986;4.468;2022-12-01T10:25:59;103033.50;;;7.86;100.00
69528;BME280;57136;51.986;4.468;2022-12-01T10:31:38;103027.84;;;9.22;100.00
69528;BME280;57136;51.986;4.468;2022-12-01T10:34:21;103030.94;;;9.72;95.54
69528;BME280;57136;51.986;4.468;2022-12-01T10:36:47;103026.16;;;9.42;94.15
69528;BME280;57136;51.986;4.468;2022-12-01T10:39:17;103028.56;;;9.18;93.72
69528;BME280;57136;51.986;4.468;2022-12-01T10:41:44;103028.34;;;8.75;95.51
69528;BME280;57136;51.986;4.468;2022-12-01T10:44:12;103032.97;;;8.28;98.49
69528;BME280;57136;51.986;4.468;2022-12-01T10:46:50;103024.91;;;7.87;100.00
69528;BME280;57136;51.986;4.468;2022-12-01T10:49:17;103024.91;;;7.87;100.00
69528;BME280;57136;51.986;4.468;2022-12-01T10:51:49;103023.88;;;7.67;100.00
69528;BME280;57136;51.986;4.468;2022-12-01T10:54:16;103022.34;;;7.54;100.00
69528;BME280;57136;51.986;4.468;2022-12-01T10:56:44;103019.94;;;7.41;100.00
69528;BME280;57136;51.986;4.468;2022-12-01T11:01:48;103013.16;;;7.94;100.00
69528;BME280;57136;51.986;4.468;2022-12-01T11:06:50;103025.78;;;8.22;95.98
69528;BME280;57136;51.986;4.468;2022-12-01T11:09:27;103022.75;;;8.31;95.26
69528;BME280;57136;51.986;4.468;2022-12-01T11:12:01;103017.72;;;8.34;96.06
69528;BME280;57136;51.986;4.468;2022-12-01T11:17:40;103012.56;;;8.52;94.51
69528;BME280;57136;51.986;4.468;2022-12-01T11:20:25;103008.72;;;8.28;94.69
69528;BME280;57136;51.986;4.468;2022-12-01T11:26:13;103006.63;;;8.02;97.41
69528;BME280;57136;51.986;4.468;2022-12-01T11:28:49;103004.78;;;8.00;96.47
69528;BME280;57136;51.986;4.468;2022-12-01T11:31:16;102997.63;;;7.95;98.04
69528;BME280;57136;51.986;4.468;2022-12-01T11:33:53;102992.56;;;7.80;98.80
69528;BME280;57136;51.986;4.468;2022-12-01T11:38:54;102990.50;;;9.20;92.29
69528;BME280;57136;51.986;4.468;2022-12-01T11:41:30;102986.25;;;9.41;89.19
69528;BME280;57136;51.986;4.468;2022-12-01T11:43:58;102993.53;;;9.70;87.14
69528;BME280;57136;51.986;4.468;2022-12-01T11:46:31;102991.97;;;10.16;85.75
69528;BME280;57136;51.986;4.468;2022-12-01T11:48:59;102988.91;;;10.05;83.13
69528;BME280;57136;51.986;4.468;2022-12-01T11:51:30;102987.22;;;9.43;84.37
69528;BME280;57136;51.986;4.468;2022-12-01T11:54:16;102978.28;;;9.58;86.04
69528;BME280;57136;51.986;4.468;2022-12-01T11:56:44;102972.72;;;10.12;85.07
69528;BME280;57136;51.986;4.468;2022-12-01T11:59:22;102975.94;;;10.07;82.90
69528;BME280;57136;51.986;4.468;2022-12-01T12:10:50;102962.19;;;8.88;85.95
69528;BME280;57136;51.986;4.468;2022-12-01T12:16:05;102964.50;;;9.20;87.27
69528;BME280;57136;51.986;4.468;2022-12-01T12:19:39;102964.28;;;8.95;85.95
69528;BME280;57136;51.986;4.468;2022-12-01T12:24:56;102952.09;;;8.38;88.38
69528;BME280;57136;51.986;4.468;2022-12-01T12:27:33;102958.25;;;8.04;88.20
69528;BME280;57136;51.986;4.468;2022-12-01T12:30:28;102955.13;;;8.12;88.83
69528;BME280;57136;51.986;4.468;2022-12-01T12:44:34;102944.06;;;8.52;83.32
69528;BME280;57136;51.986;4.468;2022-12-01T12:47:18;102946.69;;;9.09;81.30
69528;BME280;57136;51.986;4.468;2022-12-01T12:52:20;102942.03;;;10.05;77.34
69528;BME280;57136;51.986;4.468;2022-12-01T12:54:52;102943.53;;;10.42;75.33
69528;BME280;57136;51.986;4.468;2022-12-01T13:05:25;102951.94;;;9.93;73.59
69528;BME280;57136;51.986;4.468;2022-12-01T13:08:03;102955.16;;;9.44;74.81
69528;BME280;57136;51.986;4.468;2022-12-01T13:10:45;102949.22;;;9.68;72.89
69528;BME280;57136;51.986;4.468;2022-12-01T13:13:24;102949.09;;;9.86;72.99
69528;BME280;57136;51.986;4.468;2022-12-01T13:15:54;102943.44;;;9.35;76.46
69528;BME280;57136;51.986;4.468;2022-12-01T13:18:37;102945.53;;;9.84;76.00
69528;BME280;57136;51.986;4.468;2022-12-01T13:21:04;102938.31;;;10.21;74.60
69528;BME280;57136;51.986;4.468;2022-12-01T13:23:31;102940.13;;;9.58;75.18
69528;BME280;57136;51.986;4.468;2022-12-01T13:25:59;102943.09;;;9.27;78.22
69528;BME280;57136;51.986;4.468;2022-12-01T13:28:53;102946.06;;;9.15;79.42
69528;BME280;57136;51.986;4.468;2022-12-01T13:31:18;102952.97;;;8.57;81.18
69528;BME280;57136;51.986;4.468;2022-12-01T13:34:04;102952.16;;;8.58;82.05
69528;BME280;57136;51.986;4.468;2022-12-01T13:36:31;102946.81;;;8.37;83.87
69528;BME280;57136;51.986;4.468;2022-12-01T13:39:04;102933.75;;;7.99;85.73
69528;BME280;57136;51.986;4.468;2022-12-01T13:41:36;102930.03;;;8.30;85.00
69528;BME280;57136;51.986;4.468;2022-12-01T13:44:20;102922.88;;;8.80;83.16
69528;BME280;57136;51.986;4.468;2022-12-01T13:57:39;102928.56;;;8.35;86.25
69528;BME280;57136;51.986;4.468;2022-12-01T14:00:28;102917.16;;;8.32;85.52
69528;BME280;57136;51.986;4.468;2022-12-01T14:06:07;102913.59;;;7.93;88.09
69528;BME280;57136;51.986;4.468;2022-12-01T14:08:35;102912.63;;;8.09;87.30
69528;BME280;57136;51.986;4.468;2022-12-01T14:11:03;102917.31;;;7.99;87.74
69528;BME280;57136;51.986;4.468;2022-12-01T14:13:44;102918.78;;;7.93;88.15
69528;BME280;57136;51.986;4.468;2022-12-01T14:16:10;102916.09;;;8.10;88.06
69528;BME280;57136;51.986;4.468;2022-12-01T14:18:39;102912.00;;;7.97;88.33
69528;BME280;57136;51.986;4.468;2022-12-01T14:21:08;102908.34;;;7.92;88.57
69528;BME280;57136;51.986;4.468;2022-12-01T14:23:57;102912.97;;;7.81;89.59
69528;BME280;57136;51.986;4.468;2022-12-01T14:26:23;102920.38;;;7.73;90.39
69528;BME280;57136;51.986;4.468;2022-12-01T14:34:13;102913.41;;;7.38;92.58
69528;BME280;57136;51.986;4.468;2022-12-01T14:39:18;102906.06;;;7.12;93.63
69528;BME280;57136;51.986;4.468;2022-12-01T14:41:48;102912.47;;;7.19;92.88
69528;BME280;57136;51.986;4.468;2022-12-01T14:44:37;102923.22;;;7.43;92.47
69528;BME280;57136;51.986;4.468;2022-12-01T14:47:16;102913.63;;;7.59;91.97
69528;BME280;57136;51.986;4.468;2022-12-01T14:49:54;102911.91;;;7.59;91.23
69528;BME280;57136;51.986;4.468;2022-12-01T14:54:51;102911.31;;;7.30;92.13
69528;BME280;57136;51.986;4.468;2022-12-01T14:57:22;102914.75;;;7.13;93.81
69528;BME280;57136;51.986;4.468;2022-12-01T15:02:46;102906.81;;;6.93;94.71
69528;BME280;57136;51.986;4.468;2022-12-01T15:05:16;102909.50;;;6.78;95.49
69528;BME280;57136;51.986;4.468;2022-12-01T15:07:45;102905.88;;;6.59;97.24